Time;durP1;ratioP1;P1;durP2;ratioP2;P2;SDS_P1;SDS_P2;PMS_P1;PMS_P2;Temp;Humidity;BMP_temperature;BMP_pressure;BME280_temperature;BME280_humidity;BME280_pressure;Samples;Min_cycle;Max_cycle;Signal;HPM_P1;HPM_P2
2022/04/20 00:01:38;;;;;;;0.20;0.20;;;;;;;14.05;35.65;100935.06;5203334;28;20041;-78
2022/04/20 00:04:09;;;;;;;0.75;0.75;;;;;;;14.04;35.85;100937.75;5214506;28;20689;-78
2022/04/20 00:06:40;;;;;;;0.30;0.30;;;;;;;14.02;35.99;100929.88;5219010;28;20029;-78
2022/04/20 00:09:10;;;;;;;0.75;0.75;;;;;;;14.04;36.20;100928.06;5163213;28;20037;-78
2022/04/20 00:11:41;;;;;;;0.63;0.63;;;;;;;14.04;35.91;100933.34;5203676;28;20081;-78
2022/04/20 00:14:11;;;;;;;0.30;0.30;;;;;;;13.80;36.56;100925.44;5164323;28;20041;-78
2022/04/20 00:16:42;;;;;;;0.77;0.52;;;;;;;13.87;35.78;100925.19;5180603;28;20045;-78
2022/04/20 00:19:12;;;;;;;0.50;0.50;;;;;;;13.89;35.71;100923.38;5163636;28;20471;-78
2022/04/20 00:21:43;;;;;;;0.40;0.40;;;;;;;13.82;35.92;100923.59;5180848;28;20029;-78
2022/04/20 00:24:13;;;;;;;0.40;0.40;;;;;;;13.82;35.84;100923.59;5179438;28;20457;-78
2022/04/20 00:26:44;;;;;;;0.32;0.32;;;;;;;13.78;35.86;100921.13;5178017;28;20469;-79
2022/04/20 00:29:14;;;;;;;0.98;0.80;;;;;;;13.76;35.83;100922.97;5178794;28;20132;-79
2022/04/20 00:31:44;;;;;;;1.25;1.02;;;;;;;13.69;36.19;100917.03;5175011;28;20062;-78
2022/04/20 00:34:15;;;;;;;0.32;0.32;;;;;;;13.65;36.30;100926.00;5197338;28;20188;-79
2022/04/20 00:36:50;;;;;;;0.40;0.40;;;;;;;13.62;36.42;100931.38;5145668;28;20029;-79
2022/04/20 00:39:21;;;;;;;0.60;0.60;;;;;;;13.64;36.27;100924.28;5159438;28;20387;-78
2022/04/20 00:41:52;;;;;;;0.65;0.60;;;;;;;13.48;36.73;100927.47;5143382;28;20044;-78
2022/04/20 00:44:24;;;;;;;0.38;0.38;;;;;;;13.46;36.54;100931.94;5182390;28;20045;-79
2022/04/20 00:46:56;;;;;;;0.80;0.80;;;;;;;13.53;36.24;100927.31;5161068;28;20499;-79
2022/04/20 00:49:27;;;;;;;0.70;0.70;;;;;;;13.51;36.85;100932.63;5175807;28;20451;-79
2022/04/20 00:51:58;;;;;;;2.67;2.00;;;;;;;13.53;36.51;100933.44;5193426;28;20037;-79
2022/04/20 00:54:28;;;;;;;0.45;0.45;;;;;;;13.52;36.85;100938.75;5193428;28;20045;-79
2022/04/20 00:56:59;;;;;;;0.40;0.40;;;;;;;13.41;36.66;100931.25;5177510;28;20022;-79
2022/04/20 00:59:36;;;;;;;0.30;0.30;;;;;;;13.13;37.04;100945.34;5193733;28;20037;-79
2022/04/20 01:02:10;;;;;;;0.60;0.60;;;;;;;12.60;39.09;100938.31;5193523;28;20041;-79
2022/04/20 01:04:41;;;;;;;0.60;0.60;;;;;;;12.70;37.38;100931.84;5163429;28;20362;-79
2022/04/20 01:07:13;;;;;;;0.40;0.40;;;;;;;12.70;38.41;100936.22;5177982;28;20033;-79
2022/04/20 01:09:44;;;;;;;0.40;0.40;;;;;;;12.72;38.00;100940.56;5178934;28;20049;-79
2022/04/20 01:12:18;;;;;;;0.30;0.30;;;;;;;12.77;38.03;100932.47;5177857;28;20038;-79
2022/04/20 01:14:49;;;;;;;0.20;0.20;;;;;;;12.78;37.61;100936.00;5192367;28;20041;-79
2022/04/20 01:17:19;;;;;;;0.82;0.82;;;;;;;12.15;39.31;100934.44;5174967;28;20032;-79
2022/04/20 01:19:50;;;;;;;0.32;0.32;;;;;;;11.93;40.31;100935.06;5179584;28;20509;-79
2022/04/20 01:22:23;;;;;;;0.30;0.30;;;;;;;11.92;40.18;100930.69;5193386;28;20371;-79
2022/04/20 01:24:54;;;;;;;0.40;0.40;;;;;;;12.10;40.03;100933.72;5160505;28;20111;-79
2022/04/20 01:27:24;;;;;;;0.50;0.50;;;;;;;12.26;39.57;100932.34;5176084;28;20398;-79
2022/04/20 01:29:55;;;;;;;1.17;1.05;;;;;;;11.88;40.55;100938.72;5177587;28;20053;-79
2022/04/20 01:32:25;;;;;;;0.63;0.63;;;;;;;12.32;39.20;100933.06;5191599;28;20056;-79
2022/04/20 01:34:56;;;;;;;0.63;0.63;;;;;;;12.31;38.90;100928.69;5192335;28;20688;-79
2022/04/20 01:37:26;;;;;;;0.47;0.47;;;;;;;12.27;39.15;100927.94;5191743;28;20041;-79
2022/04/20 01:39:56;;;;;;;0.40;0.40;;;;;;;12.17;39.31;100932.63;5192421;28;20045;-79
2022/04/20 01:42:27;;;;;;;1.98;1.00;;;;;;;12.23;39.09;100928.94;5181282;28;20076;-79
2022/04/20 01:44:58;;;;;;;0.30;0.30;;;;;;;12.27;38.60;100928.78;5150989;28;20120;-79
2022/04/20 01:47:28;;;;;;;0.45;0.45;;;;;;;12.37;38.57;100929.38;5164899;28;20041;-79
2022/04/20 01:49:59;;;;;;;0.30;0.30;;;;;;;12.39;38.75;100931.94;5171185;28;20034;-80
2022/04/20 01:52:29;;;;;;;0.40;0.40;;;;;;;12.23;39.95;100931.59;5166144;28;20572;-79
2022/04/20 01:55:00;;;;;;;1.30;1.20;;;;;;;12.27;38.87;100928.78;5181296;28;20049;-79
2022/04/20 01:57:30;;;;;;;0.40;0.40;;;;;;;12.27;39.42;100933.19;5184337;28;20037;-79
2022/04/20 02:00:01;;;;;;;0.30;0.30;;;;;;;12.31;39.61;100928.69;5161863;28;20339;-79
2022/04/20 02:02:34;;;;;;;7.25;2.47;;;;;;;12.26;38.96;100940.25;5194833;28;20073;-79
2022/04/20 02:05:07;;;;;;;3.00;1.15;;;;;;;12.24;38.92;100941.19;5188402;28;20052;-79
2022/04/20 02:07:38;;;;;;;0.30;0.30;;;;;;;11.96;40.30;100945.47;5164926;28;20036;-79
2022/04/20 02:10:09;;;;;;;0.40;0.40;;;;;;;12.07;38.95;100942.53;5164583;28;20493;-79
2022/04/20 02:12:39;;;;;;;1.13;1.02;;;;;;;12.16;39.09;100948.44;5163896;28;20525;-79
2022/04/20 02:15:10;;;;;;;0.82;0.82;;;;;;;11.99;40.26;100943.69;5194327;28;20033;-79
2022/04/20 02:17:41;;;;;;;0.98;0.95;;;;;;;11.71;39.94;100945.31;5174832;28;20025;-79
2022/04/20 02:20:11;;;;;;;0.30;0.30;;;;;;;11.84;39.87;100945.84;5177798;28;20041;-80
2022/04/20 02:22:42;;;;;;;0.30;0.30;;;;;;;11.98;39.17;100939.34;5148825;28;20032;-80
2022/04/20 02:25:12;;;;;;;0.30;0.30;;;;;;;12.05;39.03;100938.25;5161059;28;20029;-80
2022/04/20 02:27:45;;;;;;;0.20;0.20;;;;;;;12.04;38.90;100932.13;5182058;28;20045;-80
2022/04/20 02:30:16;;;;;;;0.50;0.50;;;;;;;12.04;38.73;100942.66;5198962;28;20050;-80
2022/04/20 02:32:46;;;;;;;0.55;0.55;;;;;;;12.06;38.74;100945.22;5161302;28;20452;-80
2022/04/20 02:35:17;;;;;;;0.40;0.40;;;;;;;12.06;39.08;100940.84;5178551;28;20037;-80
2022/04/20 02:37:47;;;;;;;0.32;0.32;;;;;;;12.05;38.76;100935.59;5174915;28;20171;-80
2022/04/20 02:40:18;;;;;;;0.20;0.20;;;;;;;12.02;39.12;100940.97;5152622;28;20132;-80
2022/04/20 02:42:48;;;;;;;0.73;0.73;;;;;;;12.05;38.86;100943.50;5180467;28;20091;-80
2022/04/20 02:45:19;;;;;;;0.30;0.30;;;;;;;12.09;39.33;100939.88;5179446;28;20140;-80
2022/04/20 02:47:50;;;;;;;0.50;0.50;;;;;;;11.76;39.83;100943.41;5178012;28;20315;-80
2022/04/20 02:50:20;;;;;;;0.63;0.63;;;;;;;11.69;40.15;100941.03;5193135;28;20025;-80
2022/04/20 02:52:51;;;;;;;0.50;0.50;;;;;;;11.61;40.26;100943.84;5196527;28;20102;-80
2022/04/20 02:55:21;;;;;;;0.77;0.77;;;;;;;11.77;39.19;100949.56;5165159;28;20232;-80
2022/04/20 02:57:52;;;;;;;0.28;0.28;;;;;;;11.77;40.18;100954.81;5180556;28;20060;-80
2022/04/20 03:00:23;;;;;;;0.40;0.40;;;;;;;11.53;40.03;100951.94;5183812;28;20071;-80
2022/04/20 03:02:53;;;;;;;0.55;0.55;;;;;;;11.26;41.01;100950.91;5179202;28;20041;-79
2022/04/20 03:05:24;;;;;;;0.30;0.30;;;;;;;10.89;42.74;100957.97;5179980;28;20017;-80
2022/04/20 03:07:54;;;;;;;0.50;0.50;;;;;;;11.04;41.55;100954.09;5166688;28;20080;-80
2022/04/20 03:10:25;;;;;;;0.75;0.70;;;;;;;11.17;40.96;100954.66;5183787;28;20044;-79
2022/04/20 03:12:56;;;;;;;0.30;0.30;;;;;;;10.93;42.16;100959.63;5181873;28;20060;-80
2022/04/20 03:15:26;;;;;;;0.30;0.30;;;;;;;10.91;42.56;100957.94;5184666;28;20030;-80
2022/04/20 03:17:57;;;;;;;0.57;0.57;;;;;;;10.85;42.49;100958.94;5183253;28;20033;-80
2022/04/20 03:20:28;;;;;;;0.20;0.20;;;;;;;10.59;43.48;100963.06;5183234;28;20515;-81
2022/04/20 03:22:58;;;;;;;0.80;0.80;;;;;;;10.77;42.67;100958.28;5185607;28;20339;-80
2022/04/20 03:25:29;;;;;;;0.30;0.30;;;;;;;10.68;42.79;100968.09;5182349;28;20256;-80
2022/04/20 03:28:03;;;;;;;0.70;0.70;;;;;;;10.54;42.86;100964.91;5184454;28;20060;-80
2022/04/20 03:30:36;;;;;;;;;;;;;;;10.80;41.62;100966.06;5183370;28;20355;-78
2022/04/20 03:33:08;;;;;;;0.55;0.50;;;;;;;10.95;41.19;100970.94;5194509;28;19921;-77
2022/04/20 03:35:40;;;;;;;0.30;0.30;;;;;;;11.07;40.69;100969.78;5168202;28;20088;-78
2022/04/20 03:38:10;;;;;;;2.17;1.38;;;;;;;10.93;41.42;100970.13;5175603;28;20054;-78
2022/04/20 03:40:41;;;;;;;0.30;0.30;;;;;;;11.12;40.64;100967.91;5192442;28;20030;-78
2022/04/20 03:43:11;;;;;;;0.60;0.60;;;;;;;11.18;40.93;100966.88;5175731;28;20045;-78
2022/04/20 03:45:42;;;;;;;0.50;0.50;;;;;;;11.15;40.78;100972.19;5195662;28;20112;-78
2022/04/20 03:48:12;;;;;;;0.32;0.32;;;;;;;11.14;41.00;100975.72;5161796;28;20301;-79
2022/04/20 03:50:43;;;;;;;0.30;0.30;;;;;;;11.20;40.80;100965.06;5161750;28;20033;-79
2022/04/20 03:53:13;;;;;;;0.40;0.40;;;;;;;11.18;41.15;100972.13;5193173;28;20622;-79
2022/04/20 03:55:43;;;;;;;1.75;0.88;;;;;;;11.21;40.73;100972.03;5177957;28;20510;-78
2022/04/20 03:58:14;;;;;;;6.10;0.45;;;;;;;11.19;40.32;100973.88;5197240;28;20401;-78
2022/04/20 04:00:44;;;;;;;0.20;0.20;;;;;;;11.22;40.83;100971.13;5192498;28;20075;-79
2022/04/20 04:03:15;;;;;;;1.45;0.73;;;;;;;11.20;41.04;100974.72;5181322;28;20521;-78
2022/04/20 04:05:51;;;;;;;0.50;0.50;;;;;;;11.20;40.71;100975.56;5194427;28;20068;-78
2022/04/20 04:08:21;;;;;;;0.63;0.63;;;;;;;11.18;40.56;100980.03;5164475;28;20140;-78
2022/04/20 04:10:52;;;;;;;0.43;0.43;;;;;;;11.17;40.71;100980.91;5177070;28;20037;-78
2022/04/20 04:13:22;;;;;;;0.82;0.77;;;;;;;11.12;40.85;100985.41;5177308;28;20600;-78
2022/04/20 04:15:53;;;;;;;0.25;0.25;;;;;;;11.14;40.97;100987.13;5178238;28;20028;-78
2022/04/20 04:18:23;;;;;;;0.45;0.45;;;;;;;11.13;40.48;100993.25;5173881;28;20073;-78
2022/04/20 04:20:54;;;;;;;0.20;0.20;;;;;;;10.96;41.75;100987.56;5196884;28;20018;-78
2022/04/20 04:23:27;;;;;;;0.38;0.38;;;;;;;10.46;43.29;100990.44;5165647;28;20049;-78
2022/04/20 04:25:58;;;;;;;;;;;;;;;10.47;43.20;100997.44;5179604;28;20040;-78
2022/04/20 04:28:29;;;;;;;0.40;0.40;;;;;;;10.47;42.73;100986.94;5179813;28;20320;-79
2022/04/20 04:30:59;;;;;;;0.32;0.32;;;;;;;10.37;43.41;100991.53;5179912;28;20560;-79
2022/04/20 04:33:31;;;;;;;0.30;0.30;;;;;;;10.16;44.84;101000.69;5180326;28;20037;-80
2022/04/20 04:36:02;;;;;;;0.57;0.57;;;;;;;10.30;44.12;100996.00;5163443;28;20037;-79
2022/04/20 04:38:33;;;;;;;1.27;1.17;;;;;;;10.30;43.65;100993.38;5178593;28;20038;-79
2022/04/20 04:41:03;;;;;;;0.40;0.40;;;;;;;10.21;44.33;100999.69;5159335;28;20049;-79
2022/04/20 04:43:34;;;;;;;0.25;0.25;;;;;;;10.16;43.64;101000.69;5196664;28;20096;-78
2022/04/20 04:48:53;;;;;;;0.30;0.30;;;;;;;10.37;43.83;101002.03;5171147;28;20091;-78
2022/04/20 04:51:24;;;;;;;0.50;0.50;;;;;;;10.41;43.00;100994.94;5187583;28;20113;-78
2022/04/20 04:53:54;;;;;;;0.20;0.20;;;;;;;10.04;44.55;101002.66;5187791;28;20163;-78
2022/04/20 04:56:27;;;;;;;0.60;0.60;;;;;;;9.87;45.87;101008.25;5206999;28;20387;-78
2022/04/20 04:58:59;;;;;;;0.55;0.55;;;;;;;9.97;44.19;101008.91;5186004;28;20041;-78
2022/04/20 05:01:35;;;;;;;0.30;0.30;;;;;;;9.82;45.26;101011.84;5165074;28;20017;-77
2022/04/20 05:04:06;;;;;;;0.30;0.30;;;;;;;10.00;44.68;101011.50;5201789;28;20072;-77
2022/04/20 05:06:36;;;;;;;0.40;0.40;;;;;;;10.10;43.79;101016.56;5182763;28;20393;-78
2022/04/20 05:09:07;;;;;;;0.38;0.38;;;;;;;10.00;45.19;101016.72;5166848;28;20044;-77
2022/04/20 05:11:38;;;;;;;0.43;0.43;;;;;;;10.01;44.04;101018.47;5197132;28;20033;-77
2022/04/20 05:14:09;;;;;;;4.30;1.38;;;;;;;10.23;43.85;101018.00;5202295;28;20038;-78
2022/04/20 05:16:39;;;;;;;0.30;0.30;;;;;;;10.17;43.45;101024.25;5184993;28;20044;-78
2022/04/20 05:19:10;;;;;;;0.60;0.60;;;;;;;10.29;42.98;101023.13;5160290;28;20625;-77
2022/04/20 05:21:40;;;;;;;0.68;0.68;;;;;;;10.41;43.16;101026.44;5181309;28;20021;-78
2022/04/20 05:24:11;;;;;;;0.30;0.30;;;;;;;10.31;43.25;101021.34;5178675;28;20065;-78
2022/04/20 05:26:42;;;;;;;0.30;0.30;;;;;;;10.34;43.51;101023.91;5145493;28;20116;-78
2022/04/20 05:29:12;;;;;;;0.60;0.60;;;;;;;10.24;44.53;101019.75;5195575;28;20054;-77
2022/04/20 05:31:43;;;;;;;0.30;0.30;;;;;;;10.25;43.68;101018.84;5195797;28;20042;-78
2022/04/20 05:34:13;;;;;;;0.30;0.30;;;;;;;10.02;45.18;101025.44;5160853;28;20052;-76
2022/04/20 05:42:29;;;;;;;0.47;0.47;;;;;;;9.66;46.37;101027.84;5196238;28;20851;-76
2022/04/20 05:45:00;;;;;;;1.08;0.73;;;;;;;9.88;45.68;101022.19;5175853;28;20600;-77
2022/04/20 05:47:30;;;;;;;0.20;0.20;;;;;;;9.86;45.71;101027.47;5179603;28;20029;-77
2022/04/20 05:50:01;;;;;;;0.50;0.50;;;;;;;9.84;46.49;101025.78;5177234;28;20099;-77
2022/04/20 05:52:31;;;;;;;0.85;0.85;;;;;;;9.88;45.64;101024.81;5160103;28;20421;-77
2022/04/20 05:55:06;;;;;;;1.42;0.95;;;;;;;9.63;47.28;101025.28;5178074;28;20067;-77
2022/04/20 05:57:37;;;;;;;0.75;0.75;;;;;;;9.81;46.56;101017.97;5192276;28;20062;-78
2022/04/20 06:00:08;;;;;;;0.30;0.30;;;;;;;9.82;46.33;101015.34;5179384;28;20112;-77
2022/04/20 06:02:38;;;;;;;0.75;0.75;;;;;;;9.82;46.67;101019.72;5161613;28;20051;-77
2022/04/20 06:05:10;;;;;;;4.13;1.25;;;;;;;9.91;45.46;101022.16;5175761;28;20052;-77
2022/04/20 06:07:40;;;;;;;0.75;0.75;;;;;;;10.12;45.12;101018.25;5146633;28;20029;-76
2022/04/20 06:10:10;;;;;;;0.93;0.93;;;;;;;9.97;45.15;101014.16;5195057;28;20042;-76
2022/04/20 06:12:41;;;;;;;0.40;0.40;;;;;;;10.24;44.76;101017.13;5172008;28;20057;-76
2022/04/20 06:15:12;;;;;;;0.30;0.30;;;;;;;10.24;44.93;101017.13;5183292;28;20289;-75
2022/04/20 06:17:42;;;;;;;0.40;0.40;;;;;;;10.30;44.50;101026.63;5165364;28;20064;-77
2022/04/20 06:20:13;;;;;;;0.30;0.30;;;;;;;10.38;44.30;101022.97;5141264;28;20300;-75
2022/04/20 06:22:46;;;;;;;0.52;0.52;;;;;;;10.53;44.02;101024.41;5172028;28;20026;-75
2022/04/20 06:25:17;;;;;;;0.50;0.50;;;;;;;10.39;44.72;101029.94;5176114;28;20044;-76
2022/04/20 06:27:47;;;;;;;0.40;0.40;;;;;;;10.50;44.40;101031.47;5191141;28;20047;-76
2022/04/20 06:30:17;;;;;;;0.43;0.43;;;;;;;10.65;43.88;101030.28;5176214;28;20045;-76
2022/04/20 06:32:48;;;;;;;0.40;0.40;;;;;;;10.72;43.75;101037.13;5173411;28;20033;-76
2022/04/20 06:35:19;;;;;;;0.50;0.50;;;;;;;10.75;43.73;101030.94;5162898;28;20037;-77
2022/04/20 06:37:50;;;;;;;0.57;0.57;;;;;;;10.79;43.87;101032.56;5193659;28;20029;-76
2022/04/20 06:40:20;;;;;;;0.20;0.20;;;;;;;10.86;43.90;101027.16;5165144;28;20090;-77
2022/04/20 06:42:51;;;;;;;0.50;0.50;;;;;;;10.69;44.58;101027.56;5188133;28;20053;-77
2022/04/20 06:45:22;;;;;;;0.82;0.75;;;;;;;10.87;44.16;101038.50;5160383;28;20049;-76
2022/04/20 06:47:52;;;;;;;1.08;1.08;;;;;;;10.90;43.60;101030.56;5161047;28;20441;-77
2022/04/20 06:50:22;;;;;;;0.30;0.30;;;;;;;10.88;44.10;101031.50;5196497;28;20034;-75
2022/04/20 06:58:35;;;;;;;1.73;0.57;;;;;;;11.16;43.53;101040.44;5179979;28;20034;-77
2022/04/20 07:01:07;;;;;;;0.38;0.38;;;;;;;11.07;43.73;101029.31;5182381;28;20112;-75
2022/04/20 07:03:38;;;;;;;2.00;1.25;;;;;;;11.25;43.48;101026.22;5197766;28;20041;-74
2022/04/20 07:06:08;;;;;;;0.30;0.30;;;;;;;11.26;43.42;101033.22;5147986;28;20052;-76
2022/04/20 07:08:39;;;;;;;0.30;0.30;;;;;;;11.22;43.04;101034.19;5179218;28;20037;-75
2022/04/20 07:11:09;;;;;;;0.25;0.25;;;;;;;11.33;43.40;101031.28;5178815;28;20033;-75
2022/04/20 07:13:40;;;;;;;0.30;0.30;;;;;;;11.39;42.94;101028.53;5193990;28;20531;-75
2022/04/20 07:16:11;;;;;;;0.40;0.40;;;;;;;11.47;43.16;101028.31;5179113;28;20026;-76
2022/04/20 07:18:41;;;;;;;0.63;0.63;;;;;;;11.44;42.95;101031.03;5175625;28;20042;-76
2022/04/20 07:21:12;;;;;;;0.50;0.50;;;;;;;11.45;43.14;101028.34;5178702;28;20087;-77
2022/04/20 07:23:42;;;;;;;0.35;0.35;;;;;;;11.51;43.13;101032.59;5180187;28;20555;-76
2022/04/20 07:26:13;;;;;;;1.52;1.42;;;;;;;11.56;43.17;101035.94;5194345;28;20044;-75
2022/04/20 07:28:44;;;;;;;0.40;0.40;;;;;;;11.57;42.75;101029.78;5146717;28;20632;-75
2022/04/20 07:31:14;;;;;;;1.73;1.33;;;;;;;11.61;42.97;101026.16;5179085;28;20033;-76
2022/04/20 07:33:45;;;;;;;0.30;0.30;;;;;;;11.42;43.41;101036.31;5178031;28;20041;-75
2022/04/20 07:36:15;;;;;;;1.30;1.23;;;;;;;11.67;43.03;101037.44;5179623;28;20030;-75
2022/04/20 07:38:46;;;;;;;0.30;0.30;;;;;;;11.67;43.23;101040.06;5158837;28;20296;-77
2022/04/20 07:41:16;;;;;;;0.80;0.80;;;;;;;11.65;42.92;101043.59;5162222;28;20039;-76
2022/04/20 07:43:49;;;;;;;0.28;0.28;;;;;;;11.76;42.95;101047.72;5177995;28;20514;-76
2022/04/20 07:46:20;;;;;;;0.40;0.40;;;;;;;11.71;42.88;101046.94;5180712;28;20734;-76
2022/04/20 07:48:50;;;;;;;0.30;0.30;;;;;;;11.85;42.62;101050.09;5180454;28;20044;-75
2022/04/20 07:51:21;;;;;;;0.82;0.82;;;;;;;11.96;42.37;101044.53;5166918;28;20037;-76
2022/04/20 07:53:51;;;;;;;0.40;0.40;;;;;;;11.85;42.38;101038.69;5182409;28;20353;-75
2022/04/20 07:56:23;;;;;;;0.65;0.65;;;;;;;12.00;42.25;101046.19;5181102;28;20149;-76
2022/04/20 07:58:53;;;;;;;0.43;0.40;;;;;;;12.05;41.98;101048.69;5193635;28;20464;-76
2022/04/20 08:01:24;;;;;;;0.30;0.30;;;;;;;11.95;41.80;101045.44;5179062;28;20029;-76
2022/04/20 08:03:54;;;;;;;0.35;0.35;;;;;;;12.04;42.00;101047.84;5161085;28;20045;-77
2022/04/20 08:06:26;;;;;;;0.40;0.40;;;;;;;12.05;41.59;101049.59;5161924;28;20040;-76
2022/04/20 08:08:57;;;;;;;2.65;0.95;;;;;;;12.05;41.96;101048.69;5178410;28;20037;-76
2022/04/20 08:11:27;;;;;;;0.30;0.30;;;;;;;12.18;42.08;101050.09;5178942;28;20034;-76
2022/04/20 08:14:10;;;;;;;7.72;1.10;;;;;;;12.22;41.66;101058.75;5161590;28;20048;-75
2022/04/20 08:16:43;;;;;;;0.30;0.30;;;;;;;12.38;41.30;101057.41;5181006;28;20031;-76
2022/04/20 08:19:13;;;;;;;0.30;0.30;;;;;;;12.32;41.10;101061.97;5179809;28;20700;-77
2022/04/20 08:21:44;;;;;;;0.85;0.85;;;;;;;12.37;41.15;101060.06;5162190;28;20034;-76
2022/04/20 08:24:17;;;;;;;0.38;0.38;;;;;;;12.21;41.09;101063.16;5179083;28;20065;-77
2022/04/20 08:26:50;;;;;;;0.95;0.95;;;;;;;12.32;40.78;101059.34;5197815;28;20040;-76
2022/04/20 08:29:20;;;;;;;0.20;0.20;;;;;;;12.40;40.79;101060.00;5174389;28;20418;-77
2022/04/20 08:31:51;;;;;;;0.28;0.28;;;;;;;12.44;40.52;101056.34;5176399;28;20088;-77
2022/04/20 08:34:22;;;;;;;0.43;0.43;;;;;;;12.57;40.58;101065.63;5179427;28;20510;-76
2022/04/20 08:36:52;;;;;;;0.57;0.57;;;;;;;12.54;40.11;101057.81;5158842;28;20248;-76
2022/04/20 08:39:23;;;;;;;9.40;1.85;;;;;;;12.48;38.92;101063.25;5179793;28;20512;-76
2022/04/20 08:41:54;;;;;;;0.90;0.90;;;;;;;12.36;38.71;101053.06;5176396;28;20033;-77
2022/04/20 08:44:29;;;;;;;0.30;0.30;;;;;;;12.48;39.14;101050.09;5179077;28;20103;-76
2022/04/20 08:47:02;;;;;;;0.68;0.60;;;;;;;12.57;38.16;101047.19;5162220;28;20025;-76
2022/04/20 08:49:36;;;;;;;1.17;0.90;;;;;;;12.70;38.21;101044.16;5144782;28;20053;-76
2022/04/20 08:54:57;;;;;;;0.20;0.20;;;;;;;12.78;38.09;101057.97;5193952;28;20029;-76
2022/04/20 08:57:29;;;;;;;0.50;0.50;;;;;;;12.74;37.03;101051.94;5159376;28;20028;-76
2022/04/20 09:00:00;;;;;;;0.50;0.50;;;;;;;12.78;37.90;101033.41;5175597;28;20033;-77
2022/04/20 09:02:31;;;;;;;0.45;0.45;;;;;;;13.03;38.22;101039.63;5196504;28;20030;-76
2022/04/20 09:05:03;;;;;;;0.30;0.30;;;;;;;12.93;37.28;101053.16;5195560;28;20136;-76
2022/04/20 09:07:34;;;;;;;0.30;0.30;;;;;;;13.04;37.79;101044.00;5175811;28;20090;-75
2022/04/20 09:10:05;;;;;;;0.30;0.30;;;;;;;13.06;37.67;101043.94;5159942;28;20378;-76
2022/04/20 09:12:41;;;;;;;0.50;0.50;;;;;;;13.07;37.69;101050.94;5164385;28;20269;-75
2022/04/20 09:15:27;;;;;;;0.30;0.30;;;;;;;13.11;38.13;101042.00;5182244;28;20532;-76
2022/04/20 09:17:59;;;;;;;0.20;0.20;;;;;;;13.11;38.38;101031.47;5193959;28;20068;-75
2022/04/20 09:20:33;;;;;;;0.40;0.40;;;;;;;13.25;37.99;101033.66;5160894;28;20358;-76
2022/04/20 09:23:07;;;;;;;0.30;0.30;;;;;;;13.38;37.00;101039.38;5194797;28;20409;-76
2022/04/20 09:25:41;;;;;;;0.30;0.30;;;;;;;13.36;37.15;101042.06;5194558;28;20033;-76
2022/04/20 09:28:11;;;;;;;;;;;;;;;13.26;37.38;101038.00;5191132;28;20091;-76
2022/04/20 09:30:44;;;;;;;0.38;0.38;;;;;;;13.35;37.81;101034.19;5177737;28;20465;-76
2022/04/20 09:33:18;;;;;;;0.70;0.68;;;;;;;13.43;36.05;101037.47;5160858;28;20377;-76
2022/04/20 09:35:51;;;;;;;0.30;0.30;;;;;;;13.47;35.29;101022.44;5177183;28;20140;-76
2022/04/20 09:38:22;;;;;;;0.67;0.67;;;;;;;13.51;36.03;101021.41;5190030;28;20786;-76
2022/04/20 09:40:52;;;;;;;5.57;1.75;;;;;;;13.58;35.97;101029.97;5176476;28;20106;-76
2022/04/20 09:43:23;;;;;;;0.40;0.40;;;;;;;13.66;35.93;101022.66;5179117;28;20112;-76
2022/04/20 09:49:10;;;;;;;0.52;0.52;;;;;;;13.69;36.47;101018.13;5198443;28;20037;-75
2022/04/20 09:51:42;;;;;;;0.40;0.40;;;;;;;13.93;35.77;101012.00;5161459;28;20453;-77
2022/04/20 09:54:26;;;;;;;0.30;0.30;;;;;;;13.80;36.00;101003.69;5172173;28;20037;-77
2022/04/20 09:57:13;;;;;;;0.40;0.40;;;;;;;13.77;35.18;101004.66;5180766;28;20067;-77
2022/04/20 10:00:13;;;;;;;0.30;0.30;;;;;;;13.91;35.68;101005.94;5175369;28;20376;-77
2022/04/20 10:02:51;;;;;;;0.40;0.40;;;;;;;13.87;35.32;101005.19;5176705;28;20107;-76
2022/04/20 10:05:23;;;;;;;0.55;0.55;;;;;;;13.94;35.00;101011.09;5174994;28;20082;-77
2022/04/20 10:07:58;;;;;;;0.40;0.40;;;;;;;14.05;35.36;101013.34;5192574;28;20038;-75
2022/04/20 10:10:30;;;;;;;0.63;0.63;;;;;;;14.22;35.74;101000.38;5175136;28;20496;-76
2022/04/20 10:13:03;;;;;;;0.35;0.35;;;;;;;14.10;35.94;100987.66;5192289;28;20058;-76
2022/04/20 10:18:25;;;;;;;0.80;0.70;;;;;;;14.17;36.35;100991.78;5190199;28;20520;-76
2022/04/20 10:21:00;;;;;;;0.20;0.20;;;;;;;14.29;35.58;100987.81;5174650;28;20049;-75
2022/04/20 10:23:30;;;;;;;0.60;0.60;;;;;;;14.25;36.06;100980.94;5181963;28;20053;-76
2022/04/20 10:26:07;;;;;;;0.40;0.40;;;;;;;14.38;36.29;100965.50;5179173;28;20227;-75
2022/04/20 10:28:58;;;;;;;0.30;0.30;;;;;;;14.50;36.13;100972.06;5162788;28;20037;-76
2022/04/20 10:31:40;;;;;;;0.35;0.35;;;;;;;14.57;35.63;100958.53;5177827;28;20034;-76
2022/04/20 10:34:15;;;;;;;0.35;0.35;;;;;;;14.59;36.37;100953.19;5196228;28;20030;-75
2022/04/20 10:36:57;;;;;;;0.50;0.50;;;;;;;14.73;35.76;100961.47;5177605;28;20079;-77
2022/04/20 10:39:33;;;;;;;1.50;1.08;;;;;;;14.70;35.00;100964.22;5195670;28;20033;-76
2022/04/20 10:42:14;;;;;;;0.65;0.65;;;;;;;14.69;35.28;100959.84;5181185;28;20041;-78
2022/04/20 10:45:05;;;;;;;0.25;0.25;;;;;;;14.85;34.89;100941.63;5147032;28;20160;-77
2022/04/20 10:47:42;;;;;;;0.40;0.40;;;;;;;14.93;35.43;100943.91;5195275;28;20044;-77
2022/04/20 10:50:18;;;;;;;0.40;0.40;;;;;;;14.89;35.50;100934.41;5179280;28;20163;-77
2022/04/20 10:52:59;;;;;;;0.80;0.57;;;;;;;14.98;35.81;100941.97;5161800;28;20030;-78
2022/04/20 10:55:35;;;;;;;0.30;0.30;;;;;;;15.02;34.87;100942.69;5194336;28;20044;-77
2022/04/20 10:58:20;;;;;;;0.30;0.30;;;;;;;14.97;35.58;100929.66;5196881;28;20455;-78
2022/04/20 11:01:11;;;;;;;0.30;0.30;;;;;;;15.15;36.64;100928.03;5180015;28;20026;-77
2022/04/20 11:03:52;;;;;;;0.40;0.40;;;;;;;15.27;34.50;100921.34;5165257;28;20123;-77
2022/04/20 11:06:26;;;;;;;0.20;0.20;;;;;;;15.31;35.25;100919.41;5176999;28;20041;-78
2022/04/20 11:09:00;;;;;;;0.25;0.25;;;;;;;15.35;36.14;100913.94;5177922;28;20532;-78
2022/04/20 11:20:22;;;;;;;0.32;0.32;;;;;;;15.63;34.97;100902.13;5183047;28;20037;-76
2022/04/20 11:23:05;;;;;;;0.63;0.63;;;;;;;15.75;35.66;100906.00;5178242;28;20041;-76
2022/04/20 11:25:40;;;;;;;0.50;0.50;;;;;;;15.66;35.53;100907.25;5160874;28;20405;-77
2022/04/20 11:28:10;;;;;;;0.32;0.32;;;;;;;15.76;34.69;100902.44;5184631;28;20033;-77
2022/04/20 11:30:44;;;;;;;0.30;0.30;;;;;;;15.81;35.12;100897.78;5199539;28;20043;-77
2022/04/20 11:33:15;;;;;;;0.80;0.80;;;;;;;15.88;34.04;100898.38;5163321;28;20050;-77
2022/04/20 11:35:58;;;;;;;0.60;0.60;;;;;;;16.00;34.18;100889.88;5176977;28;20098;-77
2022/04/20 11:38:48;;;;;;;0.30;0.30;;;;;;;16.09;33.51;100887.72;5175161;28;20045;-77
2022/04/20 11:41:19;;;;;;;0.20;0.20;;;;;;;16.02;33.07;100882.72;5195484;28;20025;-77
2022/04/20 11:43:50;;;;;;;0.55;0.55;;;;;;;16.11;33.97;100880.56;5167957;28;20049;-77
2022/04/20 11:46:20;;;;;;;0.40;0.40;;;;;;;16.10;33.10;100873.56;5186158;28;20470;-78
2022/04/20 11:48:52;;;;;;;2.75;0.47;;;;;;;16.15;34.04;100872.41;5198160;28;20091;-77
2022/04/20 11:51:29;;;;;;;0.95;0.95;;;;;;;16.34;34.36;100871.53;5182049;28;20097;-78
2022/04/20 11:53:59;;;;;;;0.43;0.43;;;;;;;16.42;34.55;100871.13;5180378;28;20033;-78
2022/04/20 11:56:37;;;;;;;0.50;0.50;;;;;;;16.46;34.63;100868.25;5182136;28;20516;-78
2022/04/20 11:59:08;;;;;;;0.30;0.30;;;;;;;16.64;32.98;100861.19;5172658;28;20069;-77
2022/04/20 12:01:39;;;;;;;0.55;0.55;;;;;;;16.68;33.51;100856.59;5199795;28;20068;-78
2022/04/20 12:04:14;;;;;;;0.43;0.43;;;;;;;16.74;34.22;100858.06;5167767;28;20095;-79
2022/04/20 12:06:48;;;;;;;0.40;0.40;;;;;;;16.88;33.78;100860.88;5179720;28;20117;-77
2022/04/20 12:09:30;;;;;;;0.45;0.45;;;;;;;16.99;34.04;100855.91;5196893;28;20542;-78
2022/04/20 12:12:05;;;;;;;0.63;0.63;;;;;;;17.06;32.59;100852.94;5177343;28;20037;-78
2022/04/20 12:14:40;;;;;;;1.10;1.10;;;;;;;17.03;32.25;100853.09;5179097;28;20072;-78
2022/04/20 12:17:13;;;;;;;1.33;0.52;;;;;;;17.18;32.44;100849.63;5189612;28;20177;-78
2022/04/20 12:19:44;;;;;;;0.52;0.50;;;;;;;17.46;32.58;100841.06;5177347;28;20262;-78
2022/04/20 12:22:17;;;;;;;0.30;0.30;;;;;;;17.55;31.87;100839.72;5195095;28;20029;-78